Aiken, South Carolina
Current Conditions -  °F | °C
As of 6:55 PM on Wednesday 26 Nov 2014 (Local Time) from KAIK Reporting Station
Clear Clear  
Wind Chill: 44°   Ceiling: Unl
Heat Index: 46°   Visibility: 10mi
Dew Point: 36°   Wind: 5mph
Humidity: 66%   Direction: 210°SSW
Pressure: 30.09"   Gusts: NA
Location:  33.56°N, 81.73°W
Report Text: KAIK 262355Z AUTO 21004KT 10SM CLR 08/02 A3009 RMK AO2 PNO
Loading
Personal Weather Stations






























Interactive Weather Map New forecast layout! Learn more

10-Day Weather Forecast

Advertisements
Track Severe Weather on mobile